Delamere, North Dakota
Current Conditions -  °F | °C
As of 4:55 PM on Friday 28 Nov 2014 (Local Time) from KGWR Reporting Station
Overcast Overcast  
Wind Chill:   Ceiling: 1100
Heat Index: 18°   Visibility: 10mi
Dew Point: 12°   Wind: 8mph
Humidity: 79%   Direction: 90°E
Pressure: 29.72"   Gusts: NA
Location:  46.239°N, 97.3829°W
Report Text: KGWR 282255Z AUTO 09007KT 10SM OVC011 M08/M11 A2972 RMK A01 P000
Loading
Personal Weather Stations






























Interactive Weather Map New forecast layout! Learn more

10-Day Weather Forecast

Advertisements
Track Severe Weather on mobile